createdAt,value
2022-09-21T00:00:04.702Z,0.00
2022-09-21T00:01:04.743Z,0.00
2022-09-21T00:02:04.726Z,0.00
2022-09-21T00:03:04.680Z,0.00
2022-09-21T00:04:05.668Z,0.00
2022-09-21T00:05:04.644Z,0.00
2022-09-21T00:06:04.625Z,0.00
2022-09-21T00:07:04.628Z,0.00
2022-09-21T00:08:04.613Z,0.00
2022-09-21T00:09:05.552Z,0.00
2022-09-21T00:10:05.533Z,0.00
2022-09-21T00:11:04.573Z,0.00
2022-09-21T00:12:04.545Z,0.00
2022-09-21T00:13:04.545Z,0.00
2022-09-21T00:14:04.717Z,0.00
2022-09-21T00:15:04.516Z,0.00
2022-09-21T00:16:04.497Z,0.00
2022-09-21T00:17:04.486Z,0.00
2022-09-21T00:18:04.476Z,0.00
2022-09-21T00:19:04.467Z,0.00
2022-09-21T00:20:04.446Z,0.00
2022-09-21T00:21:04.437Z,0.00
2022-09-21T00:22:04.427Z,0.00
2022-09-21T00:23:04.408Z,0.00
2022-09-21T00:24:04.387Z,0.00
2022-09-21T00:25:04.385Z,0.00
2022-09-21T00:26:04.368Z,0.00
2022-09-21T00:27:04.360Z,0.00
2022-09-21T00:28:04.339Z,0.00
2022-09-21T00:29:04.349Z,0.00
2022-09-21T00:30:04.309Z,0.00
2022-09-21T00:31:04.308Z,0.00
2022-09-21T00:32:04.374Z,0.00
2022-09-21T00:33:04.277Z,0.00
2022-09-21T00:34:04.260Z,0.00
2022-09-21T00:35:05.196Z,0.00
2022-09-21T00:36:04.243Z,0.00
2022-09-21T00:37:04.238Z,0.00
2022-09-21T00:38:04.201Z,0.00
2022-09-21T00:39:04.201Z,0.00
2022-09-21T00:40:04.249Z,0.00
2022-09-21T00:41:04.173Z,0.00
2022-09-21T00:42:04.163Z,0.00
2022-09-21T00:43:04.144Z,0.00
2022-09-21T00:44:04.122Z,0.00
2022-09-21T00:45:04.122Z,0.00
2022-09-21T00:46:04.154Z,0.00
2022-09-21T00:47:04.093Z,0.00
2022-09-21T00:48:04.073Z,0.00
2022-09-21T00:49:04.063Z,0.00
2022-09-21T00:50:04.052Z,0.00
2022-09-21T00:51:04.040Z,0.00
2022-09-21T00:52:04.038Z,0.00
2022-09-21T00:53:04.012Z,0.00
2022-09-21T00:54:03.994Z,0.00
2022-09-21T00:55:03.984Z,0.00
2022-09-21T00:56:03.966Z,0.00
2022-09-21T00:57:03.964Z,0.00
2022-09-21T00:58:03.935Z,0.00
2022-09-21T00:59:03.926Z,0.00
2022-09-21T01:00:03.917Z,0.00
2022-09-21T01:01:03.945Z,0.00
2022-09-21T01:02:03.930Z,0.00
2022-09-21T01:03:03.878Z,0.00
2022-09-21T01:04:03.857Z,0.00
2022-09-21T01:05:03.846Z,0.00
2022-09-21T01:06:03.836Z,0.00
2022-09-21T01:07:03.848Z,0.00
2022-09-21T01:08:03.816Z,0.00
2022-09-21T01:09:03.797Z,0.00
2022-09-21T01:10:03.781Z,0.00
2022-09-21T01:11:03.771Z,0.00
2022-09-21T01:12:03.759Z,0.00
2022-09-21T01:13:03.740Z,0.00
2022-09-21T01:14:03.730Z,0.00
2022-09-21T01:15:03.721Z,0.00
2022-09-21T01:16:03.722Z,0.00
2022-09-21T01:17:03.700Z,0.00
2022-09-21T01:18:03.673Z,0.00
2022-09-21T01:19:03.660Z,0.00
2022-09-21T01:20:03.641Z,0.00
2022-09-21T01:21:03.630Z,0.00
2022-09-21T01:22:03.620Z,0.00
2022-09-21T01:23:03.608Z,0.00
2022-09-21T01:24:03.591Z,0.00
2022-09-21T01:25:03.581Z,0.00
2022-09-21T01:26:03.563Z,0.00
2022-09-21T01:27:03.563Z,0.00
2022-09-21T01:28:03.537Z,0.00
2022-09-21T01:29:03.531Z,0.00
2022-09-21T01:30:03.513Z,0.00
2022-09-21T01:31:37.723Z,0.00
2022-09-21T01:32:03.480Z,0.00
2022-09-21T01:33:03.462Z,0.00
2022-09-21T01:34:03.459Z,0.00
2022-09-21T01:35:03.442Z,0.00
2022-09-21T01:36:03.432Z,0.00
2022-09-21T01:37:03.423Z,0.00
2022-09-21T01:38:03.403Z,0.00
2022-09-21T01:39:03.385Z,0.00
2022-09-21T01:40:03.437Z,0.00
2022-09-21T01:41:03.374Z,0.00
2022-09-21T01:42:04.294Z,0.00
2022-09-21T01:43:03.334Z,0.00
2022-09-21T01:44:03.326Z,0.00
2022-09-21T01:45:03.317Z,0.00
2022-09-21T01:46:04.313Z,0.00
2022-09-21T01:47:03.286Z,0.00
2022-09-21T01:48:03.267Z,0.00
2022-09-21T01:49:03.253Z,0.00
2022-09-21T01:50:03.236Z,0.00
2022-09-21T01:51:03.238Z,0.00
2022-09-21T01:52:03.216Z,0.00
2022-09-21T01:53:03.197Z,0.00
2022-09-21T01:54:03.187Z,0.00
2022-09-21T01:55:03.167Z,0.00
2022-09-21T01:56:03.170Z,0.00
2022-09-21T01:57:03.149Z,0.00
2022-09-21T01:58:03.137Z,0.00
2022-09-21T01:59:03.124Z,0.00
2022-09-21T02:00:03.108Z,0.00
2022-09-21T02:01:03.161Z,0.00
2022-09-21T02:02:03.182Z,0.00
2022-09-21T02:03:03.077Z,0.00
2022-09-21T02:04:03.060Z,0.00
2022-09-21T02:05:03.040Z,0.00
2022-09-21T02:06:03.038Z,0.00
2022-09-21T02:07:03.012Z,0.00
2022-09-21T02:08:03.008Z,0.00
2022-09-21T02:09:02.982Z,0.00
2022-09-21T02:10:02.993Z,0.00
2022-09-21T02:11:02.958Z,0.00
2022-09-21T02:12:02.951Z,0.00
2022-09-21T02:13:02.932Z,0.00
2022-09-21T02:14:02.921Z,0.00
2022-09-21T02:15:02.910Z,0.00
2022-09-21T02:16:02.957Z,0.00
2022-09-21T02:17:02.881Z,0.00
2022-09-21T02:18:02.863Z,0.00
2022-09-21T02:19:02.852Z,0.00
2022-09-21T02:20:02.843Z,0.00
2022-09-21T02:21:02.824Z,0.00
2022-09-21T02:22:02.813Z,0.00
2022-09-21T02:23:02.793Z,0.00
2022-09-21T02:24:02.794Z,0.00
2022-09-21T02:25:02.774Z,0.00
2022-09-21T02:26:02.772Z,0.00
2022-09-21T02:27:02.744Z,0.00
2022-09-21T02:28:02.735Z,0.00
2022-09-21T02:29:02.714Z,0.00
2022-09-21T02:30:02.714Z,0.00
2022-09-21T02:31:02.728Z,0.00
2022-09-21T02:32:02.685Z,0.00
2022-09-21T02:33:02.665Z,0.00
2022-09-21T02:34:02.655Z,0.00
2022-09-21T02:35:02.652Z,0.00
2022-09-21T02:36:02.626Z,0.00
2022-09-21T02:37:02.606Z,0.00
2022-09-21T02:38:02.597Z,0.00
2022-09-21T02:39:02.586Z,0.00
2022-09-21T02:40:02.619Z,0.00
2022-09-21T02:41:02.556Z,0.00
2022-09-21T02:42:02.547Z,0.00
2022-09-21T02:43:02.530Z,0.00
2022-09-21T02:44:02.518Z,0.00
2022-09-21T02:45:02.508Z,0.00
2022-09-21T02:46:02.496Z,0.00
2022-09-21T02:47:02.500Z,0.00
2022-09-21T02:48:02.474Z,0.00
2022-09-21T02:49:02.449Z,0.00
2022-09-21T02:50:02.457Z,0.00
2022-09-21T02:51:02.427Z,0.00
2022-09-21T02:52:02.420Z,0.00
2022-09-21T02:53:02.399Z,0.00
2022-09-21T02:54:02.406Z,0.00
2022-09-21T02:55:02.370Z,0.00
2022-09-21T02:56:02.362Z,0.00
2022-09-21T02:57:02.341Z,0.00
2022-09-21T02:58:02.332Z,0.00
2022-09-21T02:59:02.320Z,0.00
2022-09-21T03:00:02.311Z,0.00
2022-09-21T03:01:02.326Z,0.00
2022-09-21T03:02:02.317Z,0.00
2022-09-21T03:03:02.262Z,0.00
2022-09-21T03:04:02.270Z,0.00
2022-09-21T03:05:02.232Z,0.00
2022-09-21T03:06:02.229Z,0.00
2022-09-21T03:07:02.202Z,0.00
2022-09-21T03:08:02.203Z,0.00
2022-09-21T03:09:02.192Z,0.00
2022-09-21T03:10:02.203Z,0.00
2022-09-21T03:11:02.160Z,0.00
2022-09-21T03:12:02.148Z,0.00
2022-09-21T03:13:02.133Z,0.00
2022-09-21T03:14:02.125Z,0.00
2022-09-21T03:15:02.105Z,0.00
2022-09-21T03:16:02.127Z,0.00
2022-09-21T03:17:02.085Z,0.00
2022-09-21T03:18:02.064Z,0.00
2022-09-21T03:19:02.057Z,0.00
2022-09-21T03:20:02.035Z,0.00
2022-09-21T03:21:02.015Z,0.00
2022-09-21T03:22:02.005Z,0.00
2022-09-21T03:23:01.997Z,0.00
2022-09-21T03:24:01.986Z,0.00
2022-09-21T03:25:01.976Z,0.00
2022-09-21T03:26:01.956Z,0.00
2022-09-21T03:27:01.951Z,0.00
2022-09-21T03:28:01.930Z,0.00
2022-09-21T03:29:01.942Z,0.00
2022-09-21T03:30:02.638Z,0.00
2022-09-21T03:31:01.946Z,0.00
2022-09-21T03:32:01.878Z,0.00
2022-09-21T03:33:01.858Z,0.00
2022-09-21T03:34:01.871Z,0.00
2022-09-21T03:35:01.828Z,0.00
2022-09-21T03:36:01.831Z,0.00
2022-09-21T03:37:01.805Z,0.00
2022-09-21T03:38:01.797Z,0.00
2022-09-21T03:39:01.789Z,0.00
2022-09-21T03:40:01.808Z,0.00
2022-09-21T03:41:01.760Z,0.00
2022-09-21T03:42:01.740Z,0.00
2022-09-21T03:43:01.735Z,0.00
2022-09-21T03:44:01.719Z,0.00
2022-09-21T03:45:01.700Z,0.00
2022-09-21T03:46:02.741Z,0.00
2022-09-21T03:47:01.683Z,0.00
2022-09-21T03:48:01.660Z,0.00
2022-09-21T03:49:01.650Z,0.00
2022-09-21T03:50:01.641Z,0.00
2022-09-21T03:51:01.621Z,0.00
2022-09-21T03:52:01.613Z,0.00
2022-09-21T03:53:01.592Z,0.00
2022-09-21T03:54:01.612Z,0.00
2022-09-21T03:55:01.562Z,0.00
2022-09-21T03:56:01.552Z,0.00
2022-09-21T03:57:01.548Z,0.00
2022-09-21T03:58:01.529Z,0.00
2022-09-21T03:59:01.529Z,0.00
2022-09-21T04:00:01.503Z,0.00
2022-09-21T04:01:01.483Z,0.00
2022-09-21T04:02:01.474Z,0.00
2022-09-21T04:03:01.523Z,0.00
2022-09-21T04:04:01.454Z,0.00
2022-09-21T04:05:01.431Z,0.00
2022-09-21T04:06:01.424Z,0.00
2022-09-21T04:07:01.411Z,0.00
2022-09-21T04:08:01.395Z,0.00
2022-09-21T04:09:01.384Z,0.00
2022-09-21T04:10:01.367Z,0.00
2022-09-21T04:11:01.546Z,0.00
2022-09-21T04:13:06.205Z,0.00
2022-09-21T04:13:10.950Z,0.00
2022-09-21T04:14:10.975Z,0.00
2022-09-21T04:15:10.923Z,0.00
2022-09-21T04:16:10.959Z,0.00
2022-09-21T04:17:10.896Z,0.00
2022-09-21T04:18:10.887Z,0.00
2022-09-21T04:19:10.885Z,0.00
2022-09-21T04:20:10.857Z,0.00
2022-09-21T04:21:10.857Z,2.00
2022-09-21T04:22:10.837Z,2.00
2022-09-21T04:23:10.817Z,2.00
2022-09-21T04:24:10.818Z,0.00
2022-09-21T04:25:10.790Z,0.00
2022-09-21T04:26:10.789Z,4.00
2022-09-21T04:27:10.767Z,2.00
2022-09-21T04:28:10.767Z,1.00
2022-09-21T04:29:10.746Z,1.00
2022-09-21T04:30:10.729Z,2.00
2022-09-21T04:31:11.599Z,13.00
2022-09-21T04:32:10.699Z,11.00
2022-09-21T04:33:10.687Z,12.00
2022-09-21T04:34:10.681Z,6.00
2022-09-21T04:35:10.673Z,17.00
2022-09-21T04:36:10.650Z,15.00
2022-09-21T04:37:10.630Z,16.00
2022-09-21T04:38:10.630Z,23.00
2022-09-21T04:39:10.621Z,32.00
2022-09-21T04:40:10.642Z,29.00
2022-09-21T04:41:10.584Z,32.00
2022-09-21T04:42:10.575Z,50.00
2022-09-21T04:43:10.554Z,51.00
2022-09-21T04:44:10.552Z,60.00
2022-09-21T04:45:10.523Z,68.00
2022-09-21T04:46:10.549Z,91.00
2022-09-21T04:47:10.493Z,98.00
2022-09-21T04:48:10.493Z,102.00
2022-09-21T04:49:10.482Z,131.00
2022-09-21T04:50:10.464Z,145.00
2022-09-21T04:51:10.443Z,164.00
2022-09-21T04:52:10.441Z,185.00
2022-09-21T04:53:10.417Z,212.00
2022-09-21T04:54:10.414Z,237.00
2022-09-21T04:55:10.393Z,268.00
2022-09-21T04:56:10.385Z,296.00
2022-09-21T04:57:10.376Z,321.00
2022-09-21T04:58:10.354Z,357.00
2022-09-21T04:59:10.354Z,391.00
2022-09-21T05:00:10.335Z,410.00
2022-09-21T05:01:10.364Z,467.00
2022-09-21T05:02:10.319Z,509.00
2022-09-21T05:03:10.285Z,539.00
2022-09-21T05:04:10.295Z,580.00
2022-09-21T05:05:10.267Z,613.00
2022-09-21T05:06:10.288Z,654.00
2022-09-21T05:07:10.237Z,705.00
2022-09-21T05:08:10.237Z,744.00
2022-09-21T05:09:10.217Z,793.00
2022-09-21T05:10:10.207Z,843.00
2022-09-21T05:11:10.187Z,888.00
2022-09-21T05:12:10.178Z,937.00
2022-09-21T05:13:10.157Z,987.00
2022-09-21T05:14:10.157Z,1028.00
2022-09-21T05:15:10.130Z,1084.00
2022-09-21T05:16:10.139Z,1103.00
2022-09-21T05:17:10.109Z,1138.00
2022-09-21T05:18:10.098Z,1185.00
2022-09-21T05:19:11.049Z,1255.00
2022-09-21T05:20:10.070Z,1301.00
2022-09-21T05:21:10.052Z,1331.00
2022-09-21T05:22:10.040Z,1345.00
2022-09-21T05:23:12.602Z,1382.00
2022-09-21T05:24:11.028Z,1436.00
2022-09-21T05:25:10.006Z,1467.00
2022-09-21T05:26:09.990Z,1520.00
2022-09-21T05:27:09.980Z,1572.00
2022-09-21T05:28:09.966Z,1641.00
2022-09-21T05:29:09.957Z,1755.00
2022-09-21T05:30:09.941Z,1818.00
2022-09-21T05:31:17.629Z,1870.00
2022-09-21T05:32:10.911Z,1881.00
2022-09-21T05:33:10.841Z,1816.00
2022-09-21T05:34:09.899Z,1864.00
2022-09-21T05:35:10.812Z,1904.00
2022-09-21T05:36:09.858Z,1941.00
2022-09-21T05:37:09.843Z,1986.00
2022-09-21T05:38:09.833Z,2012.00
2022-09-21T05:39:09.830Z,2048.00
2022-09-21T05:40:09.835Z,2062.00
2022-09-21T05:41:09.796Z,2100.00
2022-09-21T05:42:09.783Z,2138.00
2022-09-21T05:43:09.773Z,2182.00
2022-09-21T05:44:09.764Z,2299.00
2022-09-21T05:45:09.743Z,2360.00
2022-09-21T05:46:09.739Z,2387.00
2022-09-21T05:47:09.714Z,2441.00
2022-09-21T05:48:09.713Z,2486.00
2022-09-21T05:49:09.703Z,2412.00
2022-09-21T05:50:09.674Z,2346.00
2022-09-21T05:51:09.663Z,2343.00
2022-09-21T05:52:09.653Z,2347.00
2022-09-21T05:53:09.645Z,2376.00
2022-09-21T05:54:09.626Z,2391.00
2022-09-21T05:55:09.605Z,2519.00
2022-09-21T05:56:09.596Z,2541.00
2022-09-21T05:57:09.586Z,2562.00
2022-09-21T05:58:09.576Z,2581.00
2022-09-21T05:59:09.554Z,2623.00
2022-09-21T06:00:09.539Z,2652.00
2022-09-21T06:01:09.539Z,2609.00
2022-09-21T06:02:09.541Z,2619.00
2022-09-21T06:03:10.821Z,2659.00
2022-09-21T06:04:09.562Z,2667.00
2022-09-21T06:05:09.478Z,2682.00
2022-09-21T06:06:09.468Z,2732.00
2022-09-21T06:07:09.449Z,2810.00
2022-09-21T06:08:09.449Z,2885.00
2022-09-21T06:09:09.420Z,2945.00
2022-09-21T06:10:09.409Z,3001.00
2022-09-21T06:11:09.399Z,3039.00
2022-09-21T06:12:09.385Z,3062.00
2022-09-21T06:13:09.380Z,3094.00
2022-09-21T06:14:09.350Z,3123.00
2022-09-21T06:15:09.344Z,3180.00
2022-09-21T06:16:09.320Z,3221.00
2022-09-21T06:17:09.310Z,3282.00
2022-09-21T06:18:10.637Z,3336.00
2022-09-21T06:19:09.311Z,3384.00
2022-09-21T06:20:09.270Z,3430.00
2022-09-21T06:21:09.264Z,3472.00
2022-09-21T06:22:09.252Z,3517.00
2022-09-21T06:23:10.220Z,3564.00
2022-09-21T06:24:09.222Z,3609.00
2022-09-21T06:25:09.212Z,3639.00
2022-09-21T06:26:09.192Z,3667.00
2022-09-21T06:27:09.186Z,3669.00
2022-09-21T06:28:09.173Z,3661.00
2022-09-21T06:29:09.165Z,3664.00
2022-09-21T06:30:09.133Z,3668.00
2022-09-21T06:31:09.152Z,3681.00
2022-09-21T06:32:09.113Z,3686.00
2022-09-21T06:33:09.114Z,3690.00
2022-09-21T06:34:09.085Z,3698.00
2022-09-21T06:35:09.074Z,3705.00
2022-09-21T06:36:09.064Z,3718.00
2022-09-21T06:37:09.045Z,3729.00
2022-09-21T06:38:09.035Z,3742.00
2022-09-21T06:39:09.027Z,3748.00
2022-09-21T06:40:09.016Z,3770.00
2022-09-21T06:41:08.998Z,3779.00
2022-09-21T06:42:08.976Z,3780.00
2022-09-21T06:43:08.976Z,3790.00
2022-09-21T06:44:08.955Z,3807.00
2022-09-21T06:45:08.946Z,3825.00
2022-09-21T06:46:08.997Z,3852.00
2022-09-21T06:47:08.917Z,3860.00
2022-09-21T06:48:08.906Z,3879.00
2022-09-21T06:49:08.908Z,3888.00
2022-09-21T06:50:08.867Z,3899.00
2022-09-21T06:51:08.864Z,3914.00
2022-09-21T06:52:08.839Z,3925.00
2022-09-21T06:53:08.848Z,3952.00
2022-09-21T06:54:08.818Z,3968.00
2022-09-21T06:55:08.811Z,3971.00
2022-09-21T06:56:08.791Z,3993.00
2022-09-21T06:57:08.784Z,4001.00
2022-09-21T06:58:08.769Z,4018.00
2022-09-21T06:59:08.759Z,4041.00
2022-09-21T07:00:08.739Z,4060.00
2022-09-21T07:01:08.858Z,4093.00
2022-09-21T07:02:08.809Z,4126.00
2022-09-21T07:03:08.710Z,4179.00
2022-09-21T07:04:09.724Z,4229.00
2022-09-21T07:05:08.672Z,4258.00
2022-09-21T07:06:08.653Z,4258.00
2022-09-21T07:07:08.643Z,4268.00
2022-09-21T07:10:04.865Z,4290.00
2022-09-21T07:10:14.391Z,4338.00
2022-09-21T07:11:09.601Z,4348.00
2022-09-21T07:12:08.573Z,4371.00
2022-09-21T07:13:09.532Z,4377.00
2022-09-21T07:14:08.542Z,4390.00
2022-09-21T07:15:08.543Z,4412.00
2022-09-21T07:16:08.557Z,4419.00
2022-09-21T07:17:08.516Z,4439.00
2022-09-21T07:18:08.503Z,4376.00
2022-09-21T07:19:12.087Z,4311.00
2022-09-21T07:20:08.474Z,4275.00
2022-09-21T07:21:08.454Z,4358.00
2022-09-21T07:22:08.442Z,4314.00
2022-09-21T07:23:08.434Z,4415.00
2022-09-21T07:24:11.956Z,4411.00
2022-09-21T07:25:08.405Z,4433.00
2022-09-21T07:26:08.387Z,4452.00
2022-09-21T07:27:08.375Z,4432.00
2022-09-21T07:28:08.367Z,4742.00
2022-09-21T07:29:08.346Z,4741.00
2022-09-21T07:30:08.335Z,4929.00
2022-09-21T07:31:08.317Z,4962.00
2022-09-21T07:32:08.306Z,5001.00
2022-09-21T07:33:08.305Z,4715.00
2022-09-21T07:34:08.406Z,4628.00
2022-09-21T07:35:08.267Z,4643.00
2022-09-21T07:36:08.257Z,4792.00
2022-09-21T07:37:08.248Z,4634.00
2022-09-21T07:38:08.239Z,4504.00
2022-09-21T07:39:08.218Z,4602.00
2022-09-21T07:40:08.224Z,4371.00
2022-09-21T07:41:08.189Z,4637.00
2022-09-21T07:42:08.180Z,4525.00
2022-09-21T07:43:08.166Z,4267.00
2022-09-21T07:44:08.159Z,4114.00
2022-09-21T07:45:08.141Z,4166.00
2022-09-21T07:46:08.175Z,4197.00
2022-09-21T07:47:08.121Z,4364.00
2022-09-21T07:48:08.098Z,4348.00
2022-09-21T07:49:08.109Z,4534.00
2022-09-21T07:50:08.071Z,4455.00
2022-09-21T07:51:08.052Z,4477.00
2022-09-21T07:52:10.732Z,4648.00
2022-09-21T07:53:08.031Z,4500.00
2022-09-21T07:54:08.023Z,4707.00
2022-09-21T07:55:08.004Z,4506.00
2022-09-21T07:56:07.995Z,4746.00
2022-09-21T07:57:07.982Z,4291.00
2022-09-21T07:58:07.972Z,4515.00
2022-09-21T07:59:08.915Z,4512.00
2022-09-21T08:00:07.942Z,4645.00
2022-09-21T08:01:08.094Z,4592.00
2022-09-21T08:02:07.977Z,4434.00
2022-09-21T08:03:07.904Z,3881.00
2022-09-21T08:04:07.884Z,4333.00
2022-09-21T08:05:07.876Z,3855.00
2022-09-21T08:06:07.864Z,4325.00
2022-09-21T08:07:07.865Z,3769.00
2022-09-21T08:08:07.849Z,3757.00
2022-09-21T08:09:07.885Z,3525.00
2022-09-21T08:10:07.817Z,4005.00
2022-09-21T08:11:07.796Z,3516.00
2022-09-21T08:12:07.796Z,3864.00
2022-09-21T08:13:07.786Z,4120.00
2022-09-21T08:14:07.972Z,4072.00
2022-09-21T08:15:11.054Z,3946.00
2022-09-21T08:16:08.749Z,3855.00
2022-09-21T08:17:07.717Z,3958.00
2022-09-21T08:18:07.708Z,3591.00
2022-09-21T08:19:07.690Z,3321.00
2022-09-21T08:20:07.679Z,3224.00
2022-09-21T08:21:07.666Z,3313.00
2022-09-21T08:22:07.660Z,3536.00
2022-09-21T08:23:07.634Z,3053.00
2022-09-21T08:24:07.630Z,4097.00
2022-09-21T08:25:07.610Z,4233.00
2022-09-21T08:26:07.602Z,4077.00
2022-09-21T08:27:07.598Z,4122.00
2022-09-21T08:28:09.839Z,3556.00
2022-09-21T08:29:07.569Z,2898.00
2022-09-21T08:30:07.548Z,2940.00
2022-09-21T08:31:07.574Z,2905.00
2022-09-21T08:32:07.530Z,2902.00
2022-09-21T08:33:07.511Z,2873.00
2022-09-21T08:34:07.584Z,2838.00
2022-09-21T08:35:07.482Z,2827.00
2022-09-21T08:36:07.462Z,2799.00
2022-09-21T08:37:07.463Z,2800.00
2022-09-21T08:38:07.441Z,2818.00
2022-09-21T08:39:07.433Z,2765.00
2022-09-21T08:40:07.461Z,2669.00
2022-09-21T08:41:07.404Z,2508.00
2022-09-21T08:42:07.394Z,2335.00
2022-09-21T08:43:07.375Z,2262.00
2022-09-21T08:44:07.444Z,2228.00
2022-09-21T08:45:07.354Z,2310.00
2022-09-21T08:46:07.350Z,2348.00
2022-09-21T08:47:07.426Z,2362.00
2022-09-21T08:48:07.400Z,2383.00
2022-09-21T08:49:07.306Z,2357.00
2022-09-21T08:50:07.285Z,2347.00
2022-09-21T08:51:07.278Z,2332.00
2022-09-21T08:52:07.266Z,2284.00
2022-09-21T08:53:07.247Z,2342.00
2022-09-21T08:54:07.237Z,2198.00
2022-09-21T08:55:07.218Z,4191.00
2022-09-21T08:56:07.201Z,3017.00
2022-09-21T08:57:07.198Z,4713.00
2022-09-21T08:58:07.211Z,4673.00
2022-09-21T08:59:07.169Z,2168.00
2022-09-21T09:00:07.148Z,2133.00
2022-09-21T09:01:07.523Z,2160.00
2022-09-21T09:02:07.172Z,2189.00
2022-09-21T09:03:07.110Z,2238.00
2022-09-21T09:04:07.332Z,2296.00
2022-09-21T09:05:07.090Z,2350.00
2022-09-21T09:06:07.074Z,2405.00
2022-09-21T09:07:07.070Z,2478.00
2022-09-21T09:08:07.051Z,2521.00
2022-09-21T09:09:07.084Z,2565.00
2022-09-21T09:10:07.025Z,2614.00
2022-09-21T09:11:07.012Z,2667.00
2022-09-21T09:12:10.842Z,2735.00
2022-09-21T09:13:06.991Z,2862.00
2022-09-21T09:14:06.963Z,2978.00
2022-09-21T09:15:06.963Z,3081.00
2022-09-21T09:16:06.962Z,3349.00
2022-09-21T09:17:06.941Z,3948.00
2022-09-21T09:18:06.914Z,3371.00
2022-09-21T09:19:06.964Z,3621.00
2022-09-21T09:20:06.891Z,3593.00
2022-09-21T09:21:06.875Z,3801.00
2022-09-21T09:22:06.866Z,3797.00
2022-09-21T09:23:06.855Z,3651.00
2022-09-21T09:24:06.839Z,3443.00
2022-09-21T09:25:06.833Z,3946.00
2022-09-21T09:26:06.805Z,3468.00
2022-09-21T09:27:06.813Z,3621.00
2022-09-21T09:28:06.786Z,3427.00
2022-09-21T09:29:06.784Z,3787.00
2022-09-21T09:30:06.757Z,3889.00
2022-09-21T09:31:06.772Z,3908.00
2022-09-21T09:32:06.739Z,3608.00
2022-09-21T09:33:06.728Z,3925.00
2022-09-21T09:34:06.833Z,3553.00
2022-09-21T09:35:06.699Z,3920.00
2022-09-21T09:36:06.692Z,4402.00
2022-09-21T09:37:06.679Z,4394.00
2022-09-21T09:38:06.663Z,4472.00
2022-09-21T09:39:06.650Z,3164.00
2022-09-21T09:40:06.675Z,3071.00
2022-09-21T09:41:06.621Z,3069.00
2022-09-21T09:42:06.611Z,2987.00
2022-09-21T09:43:06.599Z,3708.00
2022-09-21T09:44:06.581Z,2705.00
2022-09-21T09:45:06.573Z,2843.00
2022-09-21T09:46:07.974Z,2945.00
2022-09-21T09:47:06.634Z,2961.00
2022-09-21T09:48:06.529Z,3009.00
2022-09-21T09:49:06.621Z,3084.00
2022-09-21T09:50:06.507Z,3123.00
2022-09-21T09:51:06.494Z,3079.00
2022-09-21T09:52:06.484Z,3171.00
2022-09-21T09:53:06.464Z,2934.00
2022-09-21T09:54:10.139Z,3048.00
2022-09-21T09:55:06.448Z,3146.00
2022-09-21T09:56:06.431Z,3039.00
2022-09-21T09:57:06.423Z,3280.00
2022-09-21T09:58:06.396Z,3422.00
2022-09-21T09:59:06.386Z,3420.00
2022-09-21T10:00:06.385Z,3445.00
2022-09-21T10:01:06.370Z,3441.00
2022-09-21T10:02:06.391Z,3418.00
2022-09-21T10:03:06.334Z,3381.00
2022-09-21T10:04:06.433Z,3326.00
2022-09-21T10:05:06.427Z,3288.00
2022-09-21T10:06:06.308Z,3279.00
2022-09-21T10:07:07.229Z,3157.00
2022-09-21T10:08:06.269Z,2815.00
2022-09-21T10:09:06.258Z,3248.00
2022-09-21T10:10:06.249Z,4044.00
2022-09-21T10:11:06.240Z,3990.00
2022-09-21T10:12:10.209Z,3041.00
2022-09-21T10:13:06.200Z,2872.00
2022-09-21T10:14:06.255Z,2899.00
2022-09-21T10:15:06.170Z,2885.00
2022-09-21T10:16:06.221Z,2747.00
2022-09-21T10:17:06.152Z,2855.00
2022-09-21T10:18:06.140Z,2831.00
2022-09-21T10:19:06.122Z,2818.00
2022-09-21T10:20:06.129Z,2861.00
2022-09-21T10:21:06.094Z,2880.00
2022-09-21T10:22:06.090Z,2912.00
2022-09-21T10:23:07.014Z,2980.00
2022-09-21T10:24:06.208Z,3023.00
2022-09-21T10:25:06.051Z,3028.00
2022-09-21T10:26:06.035Z,3969.00
2022-09-21T10:27:06.015Z,3409.00
2022-09-21T10:28:06.016Z,4164.00
2022-09-21T10:29:06.069Z,4171.00
2022-09-21T10:30:05.988Z,3859.00
2022-09-21T10:31:05.967Z,4059.00
2022-09-21T10:32:05.956Z,3618.00
2022-09-21T10:33:05.934Z,3343.00
2022-09-21T10:34:06.035Z,4348.00
2022-09-21T10:35:05.915Z,4845.00
2022-09-21T10:36:05.906Z,4562.00
2022-09-21T10:37:05.890Z,4783.00
2022-09-21T10:38:05.868Z,3540.00
2022-09-21T10:39:05.859Z,4263.00
2022-09-21T10:40:05.873Z,3983.00
2022-09-21T10:41:05.833Z,4180.00
2022-09-21T10:42:05.825Z,3764.00
2022-09-21T10:43:05.811Z,3508.00
2022-09-21T10:44:05.790Z,4300.00
2022-09-21T10:45:05.780Z,3516.00
2022-09-21T10:46:05.835Z,3802.00
2022-09-21T10:47:05.759Z,4290.00
2022-09-21T10:48:05.741Z,3478.00
2022-09-21T10:49:05.857Z,4476.00
2022-09-21T10:50:05.722Z,4313.00
2022-09-21T10:51:05.707Z,4165.00
2022-09-21T10:52:05.692Z,3719.00
2022-09-21T10:53:05.681Z,4934.00
2022-09-21T10:54:05.787Z,5502.00
2022-09-21T10:55:05.653Z,5677.00
2022-09-21T10:56:15.582Z,6054.00
2022-09-21T10:57:06.624Z,6471.00
2022-09-21T10:58:05.614Z,4833.00
2022-09-21T10:59:05.604Z,6567.00
2022-09-21T11:00:05.585Z,4620.00
2022-09-21T11:01:05.594Z,4789.00
2022-09-21T11:02:05.592Z,4787.00
2022-09-21T11:03:05.599Z,4813.00
2022-09-21T11:04:05.583Z,4902.00
2022-09-21T11:05:05.510Z,4999.00
2022-09-21T11:06:05.507Z,5106.00
2022-09-21T11:07:05.487Z,5254.00
2022-09-21T11:08:05.478Z,5297.00
2022-09-21T11:09:05.470Z,5123.00
2022-09-21T11:10:05.465Z,4415.00
2022-09-21T11:11:05.432Z,3817.00
2022-09-21T11:12:05.419Z,4132.00
2022-09-21T11:13:05.410Z,4687.00
2022-09-21T11:14:05.409Z,5141.00
2022-09-21T11:15:05.379Z,5574.00
2022-09-21T11:16:05.417Z,4663.00
2022-09-21T11:17:05.361Z,4876.00
2022-09-21T11:18:05.342Z,4966.00
2022-09-21T11:19:05.436Z,5131.00
2022-09-21T11:20:05.323Z,6319.00
2022-09-21T11:21:05.303Z,6446.00
2022-09-21T11:22:05.292Z,5637.00
2022-09-21T11:23:06.231Z,5149.00
2022-09-21T11:24:05.275Z,4798.00
2022-09-21T11:25:05.244Z,4376.00
2022-09-21T11:26:05.234Z,4035.00
2022-09-21T11:27:06.164Z,3852.00
2022-09-21T11:28:05.214Z,3960.00
2022-09-21T11:29:05.343Z,4131.00
2022-09-21T11:30:05.186Z,3812.00
2022-09-21T11:31:05.218Z,4116.00
2022-09-21T11:32:06.092Z,4030.00
2022-09-21T11:33:05.147Z,3964.00
2022-09-21T11:34:05.293Z,3942.00
2022-09-21T11:35:05.125Z,4777.00
2022-09-21T11:36:05.107Z,5075.00
2022-09-21T11:37:05.107Z,5103.00
2022-09-21T11:38:05.078Z,4608.00
2022-09-21T11:39:05.078Z,5392.00
2022-09-21T11:40:05.140Z,5618.00
2022-09-21T11:41:05.083Z,5788.00
2022-09-21T11:42:05.029Z,5874.00
2022-09-21T11:43:05.010Z,6027.00
2022-09-21T11:44:06.130Z,6183.00
2022-09-21T11:45:06.062Z,6309.00
2022-09-21T11:46:05.038Z,6402.00
2022-09-21T11:47:04.951Z,6314.00
2022-09-21T11:48:04.949Z,6249.00
2022-09-21T11:49:04.985Z,6090.00
2022-09-21T11:50:26.426Z,3509.00
2022-09-21T11:51:05.902Z,3595.00
2022-09-21T11:52:04.901Z,3523.00
2022-09-21T11:53:04.880Z,3425.00
2022-09-21T11:54:04.873Z,3356.00
2022-09-21T11:55:04.844Z,3299.00
2022-09-21T11:56:04.834Z,3257.00
2022-09-21T11:57:04.825Z,3209.00
2022-09-21T11:58:04.818Z,3152.00
2022-09-21T11:59:04.905Z,2951.00
2022-09-21T12:00:04.792Z,2816.00
2022-09-21T12:01:04.793Z,5127.00
2022-09-21T12:02:04.825Z,4933.00
2022-09-21T12:03:04.739Z,4857.00
2022-09-21T12:04:04.781Z,4801.00
2022-09-21T12:05:04.729Z,4679.00
2022-09-21T12:06:04.708Z,4613.00
2022-09-21T12:07:04.707Z,4646.00
2022-09-21T12:08:04.679Z,4790.00
2022-09-21T12:09:04.668Z,3982.00
2022-09-21T12:10:07.525Z,2795.00
2022-09-21T12:11:05.630Z,2808.00
2022-09-21T12:12:04.629Z,2809.00
2022-09-21T12:13:04.611Z,2811.00
2022-09-21T12:14:04.608Z,2810.00
2022-09-21T12:15:04.618Z,2804.00
2022-09-21T12:16:04.572Z,2801.00
2022-09-21T12:17:05.709Z,2800.00
2022-09-21T12:18:04.551Z,2796.00
2022-09-21T12:19:04.688Z,2791.00
2022-09-21T12:20:05.477Z,2781.00
2022-09-21T12:21:04.507Z,2781.00
2022-09-21T12:22:04.511Z,2781.00
2022-09-21T12:23:04.491Z,2857.00
2022-09-21T12:24:04.463Z,2915.00
2022-09-21T12:25:04.444Z,2961.00
2022-09-21T12:26:04.435Z,2896.00
2022-09-21T12:27:04.415Z,2840.00
2022-09-21T12:28:04.420Z,2862.00
2022-09-21T12:29:04.395Z,2887.00
2022-09-21T12:30:04.385Z,2889.00
2022-09-21T12:31:04.429Z,2906.00
2022-09-21T12:32:04.364Z,2915.00
2022-09-21T12:33:04.347Z,2937.00